Time;durP1;ratioP1;P1;durP2;ratioP2;P2;SDS_P1;SDS_P2;PMS_P1;PMS_P2;Temp;Humidity;BMP_temperature;BMP_pressure;BME280_temperature;BME280_humidity;BME280_pressure;Samples;Min_cycle;Max_cycle;Signal;HPM_P1;HPM_P2
2022/05/09 00:01:17;;;;;;;6.30;4.03;;;;;;;8.70;64.22;99607.19;5086232;27;20114;-70
2022/05/09 00:03:44;;;;;;;5.90;3.92;;;;;;;8.72;64.83;99604.44;5101179;27;20043;-73
2022/05/09 00:06:09;;;;;;;5.10;3.63;;;;;;;8.72;64.54;99607.97;5078321;27;20046;-70
2022/05/09 00:08:37;;;;;;;6.70;3.63;;;;;;;8.73;64.70;99611.47;5077827;27;20553;-68
2022/05/09 00:11:04;;;;;;;5.95;3.80;;;;;;;8.74;63.83;99608.72;5096435;27;20039;-68
2022/05/09 00:13:29;;;;;;;6.82;4.45;;;;;;;8.73;64.11;99616.78;5096182;27;20039;-68
2022/05/09 00:15:53;;;;;;;5.82;4.50;;;;;;;8.76;64.34;99621.91;5096441;27;20129;-67
2022/05/09 00:18:20;;;;;;;6.35;3.90;;;;;;;8.79;64.48;99618.22;5077867;27;20049;-70
2022/05/09 00:20:45;;;;;;;8.38;4.07;;;;;;;8.80;63.96;99623.44;5060628;27;20070;-73
2022/05/09 00:23:10;;;;;;;6.03;4.00;;;;;;;8.83;64.23;99614.38;5077794;27;20066;-72
2022/05/09 00:25:34;;;;;;;7.57;3.67;;;;;;;8.84;63.59;99616.94;5096458;27;20126;-69
2022/05/09 00:27:59;;;;;;;9.63;4.45;;;;;;;8.82;63.52;99650.75;5077329;27;20070;-71
2022/05/09 00:30:24;;;;;;;6.43;4.85;;;;;;;8.82;63.86;99612.69;5060360;27;20462;-70
2022/05/09 00:32:49;;;;;;;6.47;4.18;;;;;;;8.82;64.30;99618.00;5095744;27;20057;-69
2022/05/09 00:35:15;;;;;;;6.68;4.82;;;;;;;8.83;63.87;99611.72;5096090;27;20053;-71
2022/05/09 00:37:41;;;;;;;5.82;4.22;;;;;;;8.82;63.92;99612.69;5060254;27;20122;-69
2022/05/09 00:40:08;;;;;;;8.00;4.95;;;;;;;8.83;63.93;99599.28;5096101;27;20039;-70
2022/05/09 00:42:34;;;;;;;8.90;4.22;;;;;;;8.82;64.17;99605.56;5096041;27;20509;-69
2022/05/09 00:44:59;;;;;;;5.45;4.25;;;;;;;8.80;63.71;99610.16;5096777;28;20047;-68
2022/05/09 00:47:23;;;;;;;6.95;4.40;;;;;;;8.80;63.64;99603.97;5079163;28;20043;-68
2022/05/09 00:49:55;;;;;;;10.32;5.28;;;;;;;8.86;64.57;99608.88;5104611;27;20282;-71
2022/05/09 00:52:36;;;;;;;7.03;4.75;;;;;;;8.90;64.23;99616.56;5080396;27;20051;-69
2022/05/09 00:55:09;;;;;;;8.98;4.70;;;;;;;8.89;64.15;99628.16;5110648;27;20043;-72
2022/05/09 00:58:02;;;;;;;6.53;4.38;;;;;;;8.94;63.94;99622.53;5110844;27;20039;-67
2022/05/09 01:00:27;;;;;;;6.93;4.25;;;;;;;8.85;63.56;99626.63;5110615;27;20050;-69
2022/05/09 01:03:00;;;;;;;8.43;5.10;;;;;;;8.91;63.65;99628.91;5106692;27;20043;-69
2022/05/09 01:05:27;;;;;;;6.07;4.55;;;;;;;8.87;63.82;99624.75;5101258;27;20039;-70
2022/05/09 01:07:54;;;;;;;6.18;4.18;;;;;;;8.87;64.17;99611.44;5101118;27;20455;-69
2022/05/09 01:10:23;;;;;;;6.65;4.65;;;;;;;8.87;64.17;99622.09;5082545;27;20043;-66
2022/05/09 01:12:48;;;;;;;9.27;5.03;;;;;;;8.84;63.43;99616.09;5100274;27;20042;-64
2022/05/09 01:15:18;;;;;;;10.98;5.30;;;;;;;8.86;63.63;99622.19;5080090;27;20046;-67
2022/05/09 01:17:48;;;;;;;6.30;4.65;;;;;;;8.88;63.67;99618.47;5079066;27;20039;-67
2022/05/09 01:20:13;;;;;;;8.35;5.15;;;;;;;8.87;63.95;99622.09;5084833;27;20039;-67
2022/05/09 01:22:39;;;;;;;5.93;3.88;;;;;;;8.88;63.75;99625.59;5108813;27;20043;-69
2022/05/09 01:25:10;;;;;;;6.72;4.57;;;;;;;8.91;63.77;99607.66;5108467;27;20043;-67
2022/05/09 01:27:40;;;;;;;11.88;4.50;;;;;;;8.91;64.02;99607.66;5105578;27;20034;-68
2022/05/09 01:30:21;;;;;;;7.95;4.78;;;;;;;8.97;63.85;99617.00;5104728;27;20351;-67
2022/05/09 01:32:57;;;;;;;5.78;4.68;;;;;;;8.95;64.06;99611.78;5063656;27;20789;-68
2022/05/09 01:35:38;;;;;;;6.47;4.47;;;;;;;8.99;64.24;99607.13;5099093;27;20038;-68
2022/05/09 01:38:11;;;;;;;6.22;4.75;;;;;;;8.95;63.29;99614.44;5098938;27;20059;-68
2022/05/09 01:40:36;;;;;;;6.53;4.82;;;;;;;8.93;63.05;99620.81;5082171;27;20031;-68
2022/05/09 01:43:01;;;;;;;9.45;5.00;;;;;;;8.91;63.12;99623.59;5101351;27;20066;-69
2022/05/09 01:45:25;;;;;;;6.15;4.43;;;;;;;8.89;62.53;99614.88;5059180;27;20087;-70
2022/05/09 01:50:34;;;;;;;7.13;3.85;;;;;;;8.89;61.85;99625.50;5078135;27;20056;-68
2022/05/09 01:52:58;;;;;;;4.80;3.03;;;;;;;8.89;61.54;99625.50;5098315;27;20127;-67
2022/05/09 01:55:24;;;;;;;4.95;3.45;;;;;;;8.87;61.12;99626.53;5064485;27;20509;-67
2022/05/09 01:57:49;;;;;;;5.15;3.80;;;;;;;8.86;61.03;99633.66;5101141;27;20509;-69
2022/05/09 02:00:15;;;;;;;4.72;3.17;;;;;;;8.87;60.50;99638.03;5063750;27;20917;-64
2022/05/09 02:02:40;;;;;;;3.78;2.33;;;;;;;8.86;60.28;99627.50;5079456;27;20045;-64
2022/05/09 02:05:05;;;;;;;6.45;3.35;;;;;;;8.83;59.75;99628.53;5098417;27;20409;-65
2022/05/09 02:07:30;;;;;;;4.28;3.20;;;;;;;8.80;59.99;99620.78;5062529;27;20405;-65
2022/05/09 02:09:55;;;;;;;3.95;2.78;;;;;;;8.78;60.03;99629.81;5079350;27;20466;-64
2022/05/09 02:12:21;;;;;;;4.00;2.75;;;;;;;8.79;59.56;99636.81;5062297;27;20079;-69
2022/05/09 02:14:48;;;;;;;4.55;3.00;;;;;;;8.75;59.69;99636.16;5079810;27;20490;-71
2022/05/09 02:17:13;;;;;;;3.67;3.05;;;;;;;8.75;59.95;99622.88;5046178;27;20047;-69
2022/05/09 02:19:38;;;;;;;3.85;2.97;;;;;;;8.78;60.38;99630.66;5098722;27;20047;-68
2022/05/09 02:22:03;;;;;;;4.70;3.33;;;;;;;8.79;60.30;99637.69;5098391;27;20397;-66
2022/05/09 02:24:29;;;;;;;3.35;2.33;;;;;;;8.82;60.41;99633.94;5098954;27;20171;-68
2022/05/09 02:26:55;;;;;;;3.50;2.97;;;;;;;8.86;59.94;99631.00;5047275;27;20039;-65
2022/05/09 02:29:20;;;;;;;4.55;3.30;;;;;;;8.88;59.85;99623.78;5103045;27;20045;-72
2022/05/09 02:31:45;;;;;;;5.47;3.05;;;;;;;8.90;59.26;99621.03;5085744;27;20460;-70
2022/05/09 02:34:10;;;;;;;2.83;2.53;;;;;;;8.93;59.31;99613.69;5102096;27;20041;-73
2022/05/09 02:36:35;;;;;;;7.88;2.80;;;;;;;8.96;59.78;99616.16;5112075;27;20075;-71
2022/05/09 02:39:00;;;;;;;4.95;3.13;;;;;;;8.99;58.89;99628.41;5113768;27;20070;-71
2022/05/09 02:41:25;;;;;;;4.18;2.13;;;;;;;8.98;58.67;99614.25;5102363;27;20050;-72
2022/05/09 02:43:50;;;;;;;3.92;3.05;;;;;;;8.95;58.25;99619.75;5098962;27;20043;-68
2022/05/09 02:46:14;;;;;;;5.78;2.88;;;;;;;8.96;58.57;99625.94;5098285;27;20501;-69
2022/05/09 02:48:42;;;;;;;3.28;2.78;;;;;;;8.97;58.37;99612.56;5097956;27;20049;-74
2022/05/09 02:51:08;;;;;;;4.38;2.45;;;;;;;8.99;57.37;99625.75;5098858;27;20047;-70
2022/05/09 02:53:34;;;;;;;3.03;2.60;;;;;;;8.95;57.89;99626.88;5079501;27;20125;-64
2022/05/09 02:55:59;;;;;;;5.20;3.33;;;;;;;8.88;57.46;99629.09;5096998;27;20043;-70
2022/05/09 02:58:24;;;;;;;4.53;2.42;;;;;;;8.88;57.13;99629.09;5079181;27;20050;-69
2022/05/09 03:00:50;;;;;;;4.63;3.22;;;;;;;8.79;57.50;99639.47;5079080;27;20043;-68
2022/05/09 03:05:58;;;;;;;6.13;3.33;;;;;;;8.79;58.22;99636.81;5077602;27;20049;-64
2022/05/09 03:08:24;;;;;;;5.40;3.47;;;;;;;8.75;58.60;99630.84;5097179;27;20138;-63
2022/05/09 03:10:49;;;;;;;6.32;3.92;;;;;;;8.81;59.23;99622.47;5096920;27;20039;-60
2022/05/09 03:13:14;;;;;;;7.05;4.25;;;;;;;8.87;59.42;99627.41;5078958;27;20087;-62
2022/05/09 03:15:41;;;;;;;6.05;3.70;;;;;;;8.96;59.18;99623.28;5097360;27;20183;-61
2022/05/09 03:18:07;;;;;;;7.28;3.92;;;;;;;8.97;59.12;99636.47;5078386;27;20039;-65
2022/05/09 03:20:32;;;;;;;7.60;3.83;;;;;;;9.01;58.66;99637.16;5097156;27;20493;-61
2022/05/09 03:22:57;;;;;;;5.68;3.67;;;;;;;8.99;59.50;99634.56;5096553;27;20439;-61
2022/05/09 03:25:21;;;;;;;4.85;3.45;;;;;;;9.04;59.10;99627.13;5096511;27;20047;-62
2022/05/09 03:27:46;;;;;;;7.00;3.97;;;;;;;9.10;58.90;99637.38;5096231;27;20056;-62
2022/05/09 03:30:13;;;;;;;5.72;3.55;;;;;;;9.16;58.90;99641.44;5078533;27;20051;-59
2022/05/09 03:32:39;;;;;;;4.55;3.40;;;;;;;9.21;58.58;99635.81;5078229;27;20087;-59
2022/05/09 03:35:04;;;;;;;6.75;3.70;;;;;;;9.26;59.12;99639.03;5078013;27;20039;-62
2022/05/09 03:37:30;;;;;;;8.00;3.83;;;;;;;9.24;58.62;99646.28;5096483;27;20046;-60
2022/05/09 03:39:54;;;;;;;5.38;4.07;;;;;;;9.22;58.84;99653.50;5095944;27;20417;-62
2022/05/09 03:42:19;;;;;;;4.35;3.65;;;;;;;9.17;58.92;99643.16;5096719;27;20382;-62
2022/05/09 03:44:44;;;;;;;7.00;3.65;;;;;;;9.09;58.47;99635.69;5095896;27;20107;-62
2022/05/09 03:47:08;;;;;;;7.53;3.88;;;;;;;9.01;58.86;99643.31;5077653;27;20121;-62
2022/05/09 03:49:33;;;;;;;5.05;3.53;;;;;;;8.93;58.31;99642.09;5095963;27;20148;-59
2022/05/09 03:51:58;;;;;;;6.20;3.45;;;;;;;8.91;58.40;99646.66;5077202;27;20069;-60
2022/05/09 03:54:23;;;;;;;4.75;2.97;;;;;;;8.87;58.45;99646.00;5076412;27;20042;-59
2022/05/09 03:56:48;;;;;;;3.80;2.95;;;;;;;8.76;58.40;99642.31;5076155;27;20058;-59
2022/05/09 03:59:12;;;;;;;5.88;3.35;;;;;;;8.78;59.13;99648.41;5076360;27;20092;-61
2022/05/09 04:01:37;;;;;;;5.20;3.38;;;;;;;8.78;58.69;99649.25;5059199;27;20031;-61
2022/05/09 04:04:02;;;;;;;8.57;3.45;;;;;;;8.91;58.19;99646.66;5059129;27;20494;-60
2022/05/09 04:06:27;;;;;;;6.78;2.80;;;;;;;9.19;57.39;99649.22;5094661;27;20659;-61
2022/05/09 04:08:53;;;;;;;4.80;3.10;;;;;;;9.52;56.60;99650.59;5094107;27;20066;-62
2022/05/09 04:11:19;;;;;;;4.97;2.75;;;;;;;9.69;55.18;99653.84;5094906;27;20067;-61
2022/05/09 04:13:45;;;;;;;3.08;2.78;;;;;;;9.90;55.23;99656.00;5077115;27;20066;-61
2022/05/09 04:18:56;;;;;;;4.72;2.70;;;;;;;10.29;53.67;99660.41;5096011;27;20046;-61
2022/05/09 04:21:21;;;;;;;4.00;3.08;;;;;;;10.41;53.10;99657.72;5096081;27;20524;-62
2022/05/09 04:23:46;;;;;;;8.93;2.78;;;;;;;10.55;52.80;99657.59;5096067;27;20501;-61
2022/05/09 04:26:12;;;;;;;3.25;2.30;;;;;;;10.87;52.14;99662.44;5059852;27;20051;-61
2022/05/09 04:28:37;;;;;;;8.02;2.85;;;;;;;11.14;51.05;99667.59;5077598;27;20125;-62
2022/05/09 04:31:02;;;;;;;6.28;2.88;;;;;;;11.42;50.65;99663.72;5077164;27;20125;-62
2022/05/09 04:33:27;;;;;;;7.88;2.85;;;;;;;11.64;50.15;99666.47;5095745;27;20047;-61
2022/05/09 04:35:51;;;;;;;2.45;2.25;;;;;;;11.78;49.63;99666.31;5095869;27;20413;-61
2022/05/09 04:38:21;;;;;;;3.67;2.60;;;;;;;11.96;48.59;99664.91;5095951;27;20046;-61
2022/05/09 04:40:48;;;;;;;3.38;2.40;;;;;;;12.05;48.62;99660.69;5095533;27;20047;-61
2022/05/09 04:43:12;;;;;;;3.33;2.42;;;;;;;12.36;47.54;99664.50;5095633;27;20043;-61
2022/05/09 04:45:37;;;;;;;3.30;2.55;;;;;;;12.88;46.69;99660.34;5077088;28;20051;-62
2022/05/09 04:48:04;;;;;;;2.30;2.05;;;;;;;13.15;45.14;99668.84;5095739;28;20043;-62
2022/05/09 04:50:32;;;;;;;2.35;2.15;;;;;;;13.62;44.83;99667.63;5095408;28;20054;-62
2022/05/09 04:52:56;;;;;;;4.28;2.83;;;;;;;14.17;43.09;99668.28;5095241;28;20050;-62
2022/05/09 04:55:24;;;;;;;10.10;2.83;;;;;;;14.43;42.72;99658.88;5076623;28;20413;-62
2022/05/09 04:57:49;;;;;;;2.88;2.08;;;;;;;14.29;42.34;99666.38;5076916;28;20128;-62
2022/05/09 05:00:16;;;;;;;4.05;2.25;;;;;;;13.55;42.28;99668.22;5077164;28;20047;-61
2022/05/09 05:02:41;;;;;;;3.17;2.83;;;;;;;13.05;44.05;99667.88;5060100;28;20043;-61
2022/05/09 05:05:07;;;;;;;2.85;2.47;;;;;;;12.65;44.55;99663.03;5095502;28;20034;-61
2022/05/09 05:07:33;;;;;;;2.60;2.35;;;;;;;12.84;45.00;99675.81;5060275;28;20049;-62
2022/05/09 05:09:58;;;;;;;6.32;3.22;;;;;;;13.17;43.48;99669.59;5076782;28;20560;-62
2022/05/09 05:12:23;;;;;;;5.43;3.15;;;;;;;13.50;43.23;99668.63;5095271;28;20517;-63
2022/05/09 05:14:47;;;;;;;2.67;2.17;;;;;;;13.90;42.46;99668.81;5059803;28;20081;-61
2022/05/09 05:17:12;;;;;;;4.10;2.13;;;;;;;14.10;41.97;99672.50;5095187;28;20067;-61
2022/05/09 05:19:42;;;;;;;8.10;2.45;;;;;;;14.21;41.90;99677.78;5095212;28;20122;-62
2022/05/09 05:22:09;;;;;;;3.13;2.70;;;;;;;14.14;41.98;99680.13;5094941;28;20096;-62
2022/05/09 05:24:34;;;;;;;2.80;2.08;;;;;;;13.89;41.43;99680.50;5076856;28;20051;-63
2022/05/09 05:26:59;;;;;;;2.83;2.40;;;;;;;13.80;42.20;99674.09;5095043;28;20043;-64
2022/05/09 05:29:24;;;;;;;4.32;2.60;;;;;;;13.58;42.08;99679.56;5059636;28;20043;-63
2022/05/09 05:31:52;;;;;;;3.25;2.05;;;;;;;13.34;42.83;99682.44;5077069;28;20118;-62
2022/05/09 05:34:16;;;;;;;2.03;1.80;;;;;;;13.24;43.26;99688.66;5095000;28;20117;-62
2022/05/09 05:36:41;;;;;;;5.70;2.90;;;;;;;13.39;43.49;99695.44;5078332;27;20039;-62
2022/05/09 05:39:08;;;;;;;2.92;2.05;;;;;;;14.07;42.80;99695.03;5098902;27;20051;-61
2022/05/09 05:41:33;;;;;;;5.40;2.25;;;;;;;14.81;41.53;99694.91;5080386;27;20041;-61
2022/05/09 05:43:57;;;;;;;2.20;1.80;;;;;;;15.78;39.86;99688.78;5080401;27;20126;-62
2022/05/09 05:46:22;;;;;;;2.70;1.67;;;;;;;16.98;36.84;99685.41;5098603;27;20124;-62
2022/05/09 05:48:47;;;;;;;4.18;2.28;;;;;;;17.75;34.40;99686.78;5080633;27;20414;-62
2022/05/09 05:51:14;;;;;;;6.75;3.20;;;;;;;17.88;35.22;99695.31;5080180;27;20043;-61
2022/05/09 05:53:39;;;;;;;2.42;1.85;;;;;;;17.54;35.02;99689.75;5091396;27;20039;-62
2022/05/09 05:56:04;;;;;;;3.50;2.40;;;;;;;17.05;35.06;99683.78;5060527;28;20045;-63
2022/05/09 05:58:29;;;;;;;4.30;1.95;;;;;;;16.35;36.49;99689.72;5060114;28;20043;-61
2022/05/09 06:00:54;;;;;;;2.67;1.88;;;;;;;15.50;36.82;99701.16;5084596;28;20111;-62
2022/05/09 06:03:20;;;;;;;4.25;2.50;;;;;;;15.07;38.35;99706.88;5083434;28;20410;-61
2022/05/09 06:05:44;;;;;;;5.97;2.78;;;;;;;14.83;38.72;99703.66;5083312;28;20035;-63
2022/05/09 06:08:10;;;;;;;3.33;2.25;;;;;;;14.70;38.88;99703.03;5064655;28;20050;-62
2022/05/09 06:10:35;;;;;;;3.42;1.98;;;;;;;14.65;39.34;99700.78;5086642;28;20053;-61
2022/05/09 06:13:05;;;;;;;2.30;1.73;;;;;;;14.63;39.10;99705.44;5080493;28;20043;-62
2022/05/09 06:15:32;;;;;;;3.47;1.67;;;;;;;14.58;39.87;99704.13;5077815;28;20043;-61
2022/05/09 06:17:58;;;;;;;5.20;2.13;;;;;;;14.63;38.51;99708.09;5077779;28;20047;-61
2022/05/09 06:20:23;;;;;;;2.03;1.77;;;;;;;14.76;38.38;99702.53;5042546;28;20039;-62
2022/05/09 06:22:48;;;;;;;4.45;2.28;;;;;;;14.99;38.35;99713.91;5077715;28;20574;-62
2022/05/09 06:25:18;;;;;;;3.25;2.08;;;;;;;15.32;36.70;99708.22;5077981;28;20047;-60
2022/05/09 06:27:44;;;;;;;5.28;3.10;;;;;;;15.41;36.13;99712.75;5059553;28;20516;-61
2022/05/09 06:30:12;;;;;;;3.63;1.85;;;;;;;15.60;36.14;99715.50;5077541;28;20121;-62
2022/05/09 06:32:37;;;;;;;1.65;1.55;;;;;;;15.59;35.36;99711.09;5059095;28;20138;-62
2022/05/09 06:35:08;;;;;;;4.97;2.45;;;;;;;15.58;36.08;99717.47;5077417;28;20050;-62
2022/05/09 06:37:34;;;;;;;3.72;1.90;;;;;;;15.69;35.99;99724.56;5077449;28;20072;-61
2022/05/09 06:39:59;;;;;;;4.45;2.72;;;;;;;15.98;35.09;99727.25;5078330;28;20421;-62
2022/05/09 06:42:25;;;;;;;3.33;2.50;;;;;;;16.33;35.34;99724.84;5081175;28;20502;-62
2022/05/09 06:44:49;;;;;;;7.50;2.95;;;;;;;16.65;35.52;99729.03;5080804;28;20391;-61
2022/05/09 06:47:14;;;;;;;6.18;2.20;;;;;;;17.16;33.92;99731.22;5079001;28;20039;-61
2022/05/09 06:49:39;;;;;;;7.00;2.30;;;;;;;18.01;33.31;99727.31;5080468;28;20168;-62
2022/05/09 06:52:04;;;;;;;5.97;2.03;;;;;;;19.53;31.00;99730.28;5083641;28;20047;-75
2022/05/09 06:54:29;;;;;;;3.58;2.13;;;;;;;21.10;28.90;99719.13;5064344;28;20043;-63
2022/05/09 06:56:54;;;;;;;3.33;2.20;;;;;;;22.01;26.62;99726.63;5081951;28;20047;-63
2022/05/09 06:59:21;;;;;;;1.73;1.48;;;;;;;22.27;25.37;99729.81;5079493;28;20047;-61
2022/05/09 07:01:47;;;;;;;2.58;1.73;;;;;;;22.54;25.35;99733.84;5077603;28;20114;-62
2022/05/09 07:04:12;;;;;;;5.50;2.67;;;;;;;21.52;25.78;99728.78;5059110;28;20049;-62
2022/05/09 07:06:38;;;;;;;3.65;1.98;;;;;;;20.37;27.01;99730.09;5058691;28;20040;-62
2022/05/09 07:09:05;;;;;;;4.93;2.38;;;;;;;19.31;28.69;99730.84;5076797;28;20142;-63
2022/05/09 07:11:30;;;;;;;2.55;2.10;;;;;;;19.07;29.46;99727.06;5076858;28;20441;-61
2022/05/09 07:13:54;;;;;;;2.65;2.00;;;;;;;20.72;28.58;99722.59;5058226;28;20112;-63
2022/05/09 07:16:19;;;;;;;3.83;2.25;;;;;;;23.20;25.57;99720.41;5058692;28;20039;-62
2022/05/09 07:18:44;;;;;;;3.42;2.53;;;;;;;25.48;22.94;99719.16;5042081;28;20074;-62
2022/05/09 07:21:09;;;;;;;2.72;2.10;;;;;;;25.37;22.27;99725.19;5058286;28;20039;-62
2022/05/09 07:23:34;;;;;;;5.65;2.83;;;;;;;23.83;23.24;99731.47;5078981;28;20565;-60
2022/05/09 07:26:00;;;;;;;5.70;2.03;;;;;;;21.94;24.28;99717.47;5078404;28;20047;-61
2022/05/09 07:28:27;;;;;;;3.55;2.97;;;;;;;20.23;25.59;99725.31;5078344;28;20040;-62
2022/05/09 07:30:52;;;;;;;3.25;2.58;;;;;;;18.76;27.44;99726.72;5058405;28;20104;-63
2022/05/09 07:33:18;;;;;;;3.70;2.08;;;;;;;17.55;29.03;99734.56;5077309;28;20051;-63
2022/05/09 07:35:44;;;;;;;6.03;2.28;;;;;;;16.63;30.44;99737.25;5076161;28;20111;-62
2022/05/09 07:38:11;;;;;;;5.90;2.67;;;;;;;15.89;33.20;99752.31;5076320;28;20109;-62
2022/05/09 07:40:35;;;;;;;3.80;2.22;;;;;;;14.90;35.24;99732.50;5076098;28;20043;-62
2022/05/09 07:43:00;;;;;;;2.15;1.90;;;;;;;14.27;36.38;99746.97;5076395;28;20519;-62
2022/05/09 07:45:25;;;;;;;5.55;3.00;;;;;;;13.84;37.79;99752.41;5076026;28;20074;-62
2022/05/09 07:47:50;;;;;;;4.15;2.50;;;;;;;13.79;37.80;99746.56;5076003;28;20047;-63
2022/05/09 07:50:17;;;;;;;4.50;2.47;;;;;;;14.86;36.93;99741.84;5058006;28;20597;-62
2022/05/09 07:52:44;;;;;;;4.20;2.70;;;;;;;17.60;33.41;99729.59;5075960;28;20493;-61
2022/05/09 07:55:15;;;;;;;5.90;2.40;;;;;;;20.61;28.51;99732.78;5076028;28;20050;-62
2022/05/09 07:57:39;;;;;;;3.38;2.28;;;;;;;23.50;25.57;99738.41;5076228;28;20409;-62
2022/05/09 08:00:05;;;;;;;3.65;2.45;;;;;;;26.16;23.57;99730.09;5076290;28;20058;-61
2022/05/09 08:02:31;;;;;;;5.70;2.40;;;;;;;27.56;21.64;99735.22;5058332;28;20088;-62
2022/05/09 08:04:55;;;;;;;4.63;2.63;;;;;;;26.62;20.36;99725.53;5077370;28;20039;-63
2022/05/09 08:07:20;;;;;;;6.47;2.35;;;;;;;24.92;21.43;99724.75;5076957;28;20096;-62
2022/05/09 08:09:48;;;;;;;2.58;2.35;;;;;;;22.97;22.81;99731.38;5057662;28;20506;-62
2022/05/09 08:12:13;;;;;;;1.63;1.42;;;;;;;21.31;24.46;99730.25;5075785;28;20515;-62
2022/05/09 08:14:38;;;;;;;3.97;1.75;;;;;;;21.23;24.88;99719.41;5075975;28;20058;-62
2022/05/09 08:17:08;;;;;;;3.15;1.98;;;;;;;22.24;24.16;99723.91;5079595;28;20046;-67
2022/05/09 08:19:32;;;;;;;4.30;2.58;;;;;;;21.87;22.99;99721.97;5087884;27;20090;-62
2022/05/09 08:21:57;;;;;;;2.67;2.28;;;;;;;20.90;25.38;99743.03;5097341;27;20548;-62
2022/05/09 08:24:24;;;;;;;3.30;2.03;;;;;;;19.64;25.83;99745.38;5097405;27;20053;-62
2022/05/09 08:26:49;;;;;;;9.68;2.28;;;;;;;18.23;27.08;99742.16;5077597;27;20413;-62
2022/05/09 08:29:13;;;;;;;2.28;1.80;;;;;;;17.10;28.45;99747.16;5096278;27;20451;-63
2022/05/09 08:31:38;;;;;;;4.03;2.05;;;;;;;16.86;28.75;99747.66;5077294;27;20075;-62
2022/05/09 08:34:03;;;;;;;2.45;1.98;;;;;;;17.76;28.46;99753.19;5077250;28;20053;-62
2022/05/09 08:36:46;;;;;;;3.80;2.03;;;;;;;19.78;27.04;99744.72;5095695;27;20557;-62
2022/05/09 08:39:12;;;;;;;3.65;2.58;;;;;;;21.69;23.84;99744.78;5095513;27;20409;-63
2022/05/09 08:41:51;;;;;;;2.25;2.05;;;;;;;22.95;22.09;99774.22;5095503;27;20114;-62
2022/05/09 08:44:51;;;;;;;3.72;2.03;;;;;;;22.13;23.71;99773.19;5095351;27;20054;-62
2022/05/09 08:47:41;;;;;;;12.30;3.17;;;;;;;20.31;25.75;99785.72;5096122;28;20163;-63
2022/05/09 08:50:12;;;;;;;8.65;2.10;;;;;;;18.33;27.90;99786.94;5060363;28;20046;-61
2022/05/09 08:53:09;;;;;;;5.15;2.28;;;;;;;16.98;29.99;99792.28;5096088;28;20036;-62
2022/05/09 08:55:40;;;;;;;5.90;2.40;;;;;;;17.16;30.88;99798.56;5070174;28;20058;-62
2022/05/09 08:58:27;;;;;;;2.88;2.17;;;;;;;17.73;30.97;99800.16;5077203;28;20047;-62
2022/05/09 09:00:53;;;;;;;4.97;3.15;;;;;;;17.58;29.99;99800.81;5095749;28;20486;-61
2022/05/09 09:03:38;;;;;;;2.42;1.40;;;;;;;17.30;30.19;99797.25;5060176;28;20046;-62
2022/05/09 09:06:11;;;;;;;5.93;2.28;;;;;;;17.04;30.21;99786.31;5095502;28;20049;-64
2022/05/09 09:09:32;;;;;;;4.90;2.05;;;;;;;17.06;28.67;99777.06;5076821;28;20140;-62
2022/05/09 09:12:29;;;;;;;3.25;2.28;;;;;;;19.68;26.07;99774.63;5005819;28;20109;-62
2022/05/09 09:15:08;;;;;;;2.65;2.45;;;;;;;22.77;23.71;99777.31;4996868;28;20045;-62
2022/05/09 09:17:58;;;;;;;6.60;3.78;;;;;;;24.45;22.10;99781.78;4998096;28;20132;-61
2022/05/09 09:20:35;;;;;;;5.60;3.88;;;;;;;24.94;20.16;99784.56;4997844;28;20052;-62
2022/05/09 09:23:08;;;;;;;4.00;3.00;;;;;;;25.38;20.17;99781.47;4981371;28;20037;-62
2022/05/09 09:26:11;;;;;;;4.22;2.72;;;;;;;27.29;18.66;99775.53;4997413;28;20041;-63
2022/05/09 09:28:47;;;;;;;4.30;2.97;;;;;;;29.99;16.19;99784.50;4941332;28;20049;-62
2022/05/09 09:31:15;;;;;;;3.88;3.17;;;;;;;32.08;14.13;99781.00;4957844;28;20046;-61
2022/05/09 09:33:49;;;;;;;3.83;3.42;;;;;;;34.00;13.46;99796.28;4957950;28;20536;-62
2022/05/09 09:36:17;;;;;;;3.83;3.53;;;;;;;35.35;11.80;99796.19;4957145;28;20050;-63
2022/05/09 09:39:07;;;;;;;6.90;4.05;;;;;;;36.95;12.62;99805.31;4957294;28;20074;-62
2022/05/09 09:41:35;;;;;;;4.75;3.75;;;;;;;36.54;10.93;99800.84;4957602;28;20057;-62
2022/05/09 09:44:21;;;;;;;4.25;3.85;;;;;;;37.08;11.77;99806.72;4940939;28;20053;-62
2022/05/09 09:47:07;;;;;;;4.65;4.30;;;;;;;37.37;12.30;99793.06;4940959;28;20112;-62
2022/05/09 09:49:43;;;;;;;7.55;4.00;;;;;;;37.33;11.14;99806.72;4937861;28;20497;-62
2022/05/09 09:52:31;;;;;;;4.95;4.43;;;;;;;38.50;11.49;99807.06;4977754;28;20214;-62
2022/05/09 09:55:00;;;;;;;6.57;4.63;;;;;;;39.13;10.27;99807.16;5036269;28;20071;-62
2022/05/09 09:57:35;;;;;;;4.28;3.97;;;;;;;38.21;9.88;99800.56;5019203;28;20044;-62
2022/05/09 10:00:19;;;;;;;7.90;4.15;;;;;;;35.07;12.13;99794.59;5036006;28;20086;-61
2022/05/09 10:02:46;;;;;;;3.78;3.30;;;;;;;31.65;12.64;99772.41;5018928;28;20119;-63
2022/05/09 10:05:15;;;;;;;5.78;3.60;;;;;;;29.81;13.78;99789.97;5053335;27;20059;-62
2022/05/09 10:07:43;;;;;;;5.00;3.38;;;;;;;30.23;13.74;99778.03;5107044;27;20039;-62
2022/05/09 10:10:10;;;;;;;3.30;3.00;;;;;;;29.54;13.92;99776.59;5103724;27;20494;-63
2022/05/09 10:12:39;;;;;;;3.85;3.10;;;;;;;27.71;15.40;99785.97;5089401;27;20035;-62
2022/05/09 10:15:21;;;;;;;4.03;2.70;;;;;;;28.20;16.02;99792.72;5109656;27;20042;-63
2022/05/09 10:17:46;;;;;;;4.03;3.10;;;;;;;27.26;15.73;99795.97;5104818;27;20111;-63
2022/05/09 10:20:50;;;;;;;4.18;3.13;;;;;;;25.66;17.80;99812.31;5104715;27;20042;-64
2022/05/09 10:26:17;;;;;;;3.92;2.72;;;;;;;20.74;22.38;99810.84;5095062;27;20091;-63
2022/05/09 10:28:49;;;;;;;10.25;3.55;;;;;;;19.65;23.51;99809.25;5080419;27;20434;-63
2022/05/09 10:31:36;;;;;;;5.60;2.47;;;;;;;18.83;25.07;99808.81;5059367;28;20294;-62
2022/05/09 10:34:07;;;;;;;3.70;2.30;;;;;;;18.08;25.57;99798.50;5081278;28;20039;-63
2022/05/09 10:36:56;;;;;;;4.05;2.28;;;;;;;17.42;26.49;99804.16;5064323;28;20031;-63
2022/05/09 10:39:28;;;;;;;3.90;2.50;;;;;;;16.71;28.33;99801.13;5087098;28;20151;-64
2022/05/09 10:41:57;;;;;;;5.15;2.78;;;;;;;16.41;28.17;99802.13;5085194;28;20036;-62
2022/05/09 10:44:39;;;;;;;5.20;3.22;;;;;;;16.30;28.00;99810.34;5050201;28;20047;-62
2022/05/09 10:47:29;;;;;;;3.00;2.53;;;;;;;15.95;28.11;99816.28;5066696;28;20039;-63
2022/05/09 10:50:09;;;;;;;3.72;3.05;;;;;;;15.29;29.41;99823.97;5044412;28;20044;-62
2022/05/09 10:52:43;;;;;;;4.50;2.58;;;;;;;14.65;31.56;99832.25;5059943;28;20050;-65
2022/05/09 10:55:19;;;;;;;3.88;2.35;;;;;;;14.22;33.21;99836.84;5026053;28;20626;-64
2022/05/09 10:58:19;;;;;;;7.57;2.92;;;;;;;14.01;32.82;99834.09;5077641;28;20047;-64
2022/05/09 11:00:52;;;;;;;7.00;3.05;;;;;;;13.96;36.08;99831.81;5076418;27;20567;-63
2022/05/09 11:03:34;;;;;;;6.38;2.95;;;;;;;14.00;35.37;99853.81;5077073;28;20039;-63
2022/05/09 11:06:21;;;;;;;6.07;3.15;;;;;;;13.75;37.64;99879.97;5058542;28;20055;-62
2022/05/09 11:09:04;;;;;;;4.30;2.80;;;;;;;13.32;36.92;99905.75;5057633;28;20075;-63
2022/05/09 11:12:04;;;;;;;5.70;2.55;;;;;;;12.60;39.83;99907.78;5059521;28;20052;-63
2022/05/09 11:14:33;;;;;;;3.42;1.65;;;;;;;11.28;44.64;99905.81;4981073;28;20425;-62
2022/05/09 11:17:10;;;;;;;3.05;1.75;;;;;;;10.45;47.38;99909.78;4995144;28;20479;-63
2022/05/09 11:20:09;;;;;;;2.08;1.83;;;;;;;9.92;47.05;99904.41;4986768;28;20076;-63
2022/05/09 11:22:51;;;;;;;2.33;2.00;;;;;;;9.35;50.46;99901.84;5005103;28;20045;-63
2022/05/09 11:25:32;;;;;;;2.65;2.00;;;;;;;8.91;50.50;99913.41;4988744;28;20049;-62
2022/05/09 11:28:02;;;;;;;3.85;1.65;;;;;;;8.60;51.98;99909.03;4982529;28;20111;-67
2022/05/09 11:30:47;;;;;;;1.52;1.38;;;;;;;8.31;52.90;99899.25;4999322;28;20057;-63
2022/05/09 11:33:14;;;;;;;3.92;2.30;;;;;;;8.09;53.07;99904.94;4965202;28;20045;-62
2022/05/09 11:35:39;;;;;;;2.35;1.75;;;;;;;7.95;55.52;99903.06;4994698;28;20056;-63
2022/05/09 11:38:26;;;;;;;6.47;2.65;;;;;;;8.08;54.79;99902.34;4978722;28;20147;-63
2022/05/09 11:41:06;;;;;;;4.95;1.95;;;;;;;8.10;55.34;99906.66;4994710;28;20044;-63
2022/05/09 11:43:49;;;;;;;2.65;2.28;;;;;;;8.11;55.67;99896.88;4978653;28;20056;-63
2022/05/09 11:46:14;;;;;;;4.38;2.60;;;;;;;8.21;56.13;99893.59;4994629;28;20048;-63
2022/05/09 11:48:42;;;;;;;2.67;2.38;;;;;;;8.53;56.22;99902.38;4993913;28;20048;-64
2022/05/09 11:51:25;;;;;;;3.70;2.22;;;;;;;8.95;54.53;99895.44;5024302;28;20051;-66
2022/05/09 11:54:01;;;;;;;3.35;2.15;;;;;;;9.35;54.93;99902.69;5056452;28;20494;-67
2022/05/09 11:56:29;;;;;;;5.22;3.13;;;;;;;9.73;55.30;99897.59;5056229;28;20071;-64
2022/05/09 11:58:54;;;;;;;4.38;2.42;;;;;;;10.09;54.18;99901.50;5060414;28;20043;-64